Time;durP1;ratioP1;P1;durP2;ratioP2;P2;SDS_P1;SDS_P2;PMS_P1;PMS_P2;Temp;Humidity;BMP_temperature;BMP_pressure;BME280_temperature;BME280_humidity;BME280_pressure;Samples;Min_cycle;Max_cycle;Signal;HPM_P1;HPM_P2
2023/04/21 00:01:11;;;;;;;12.03;10.40;;;7.10;99.90;;;;;;5080520;28;20483;-92
2023/04/21 00:03:58;;;;;;;13.47;10.20;;;7.20;99.90;;;;;;5081843;28;20526;-92
2023/04/21 00:06:44;;;;;;;13.40;10.83;;;7.20;99.90;;;;;;5081088;28;20435;-92
2023/04/21 00:09:30;;;;;;;13.37;10.00;;;7.10;99.90;;;;;;5075277;28;20513;-93
2023/04/21 00:12:18;;;;;;;14.00;10.17;;;7.00;99.90;;;;;;5085397;28;20455;-92
2023/04/21 00:15:05;;;;;;;14.17;10.57;;;7.10;99.90;;;;;;5081806;28;20408;-91
2023/04/21 00:17:51;;;;;;;12.10;9.30;;;6.90;99.90;;;;;;5078061;28;20482;-91
2023/04/21 00:20:38;;;;;;;14.00;10.70;;;6.90;99.90;;;;;;5080154;28;20467;-92
2023/04/21 00:23:23;;;;;;;12.90;11.00;;;6.80;99.90;;;;;;5083129;28;20480;-91
2023/04/21 00:26:09;;;;;;;15.50;10.80;;;6.80;99.90;;;;;;5081908;28;20546;-91
2023/04/21 00:28:56;;;;;;;12.80;10.30;;;6.70;99.90;;;;;;5092434;28;20803;-92
2023/04/21 00:31:41;;;;;;;11.90;9.67;;;6.70;99.90;;;;;;5085449;28;20878;-92
2023/04/21 00:34:27;;;;;;;12.73;10.30;;;6.70;99.90;;;;;;5087968;28;20439;-92
2023/04/21 00:37:13;;;;;;;12.33;10.33;;;6.60;99.90;;;;;;5078428;28;20600;-92
2023/04/21 00:39:58;;;;;;;12.53;9.87;;;6.70;99.90;;;;;;5084748;28;20546;-92
2023/04/21 00:42:44;;;;;;;12.23;9.30;;;6.70;99.90;;;;;;5090852;28;20430;-91
2023/04/21 00:45:31;;;;;;;12.50;10.10;;;6.80;99.90;;;;;;5089587;28;20540;-93
2023/04/21 00:48:19;;;;;;;13.40;10.43;;;6.90;99.90;;;;;;5089586;28;20493;-92
2023/04/21 00:51:05;;;;;;;13.07;10.47;;;6.80;99.90;;;;;;5083283;28;20475;-91
2023/04/21 00:53:51;;;;;;;14.70;10.70;;;6.60;99.90;;;;;;5083132;28;20458;-92
2023/04/21 00:56:47;;;;;;;11.10;9.80;;;6.70;99.90;;;;;;5084814;28;21020;-92
2023/04/21 00:59:33;;;;;;;13.27;9.87;;;6.60;99.90;;;;;;5073857;28;20468;-91
2023/04/21 01:02:21;;;;;;;11.90;10.63;;;6.60;99.90;;;;;;5083459;28;20485;-91
2023/04/21 01:05:08;;;;;;;15.87;11.20;;;6.40;99.90;;;;;;5082423;28;20439;-92
2023/04/21 01:07:55;;;;;;;16.80;10.10;;;6.30;99.90;;;;;;5078774;28;20519;-92
2023/04/21 01:10:41;;;;;;;15.17;10.43;;;6.30;99.90;;;;;;5079908;28;20942;-92
2023/04/21 01:13:27;;;;;;;13.57;10.83;;;6.20;99.90;;;;;;5083945;28;20429;-91
2023/04/21 01:16:16;;;;;;;15.20;11.40;;;6.30;99.90;;;;;;5082839;28;20452;-92
2023/04/21 01:19:04;;;;;;;14.40;11.07;;;6.30;99.90;;;;;;5082423;28;20440;-92
2023/04/21 01:21:52;;;;;;;13.30;9.77;;;6.40;99.90;;;;;;5083366;28;20573;-93
2023/04/21 01:24:39;;;;;;;13.47;10.17;;;6.40;99.90;;;;;;5089581;28;20435;-92
2023/04/21 01:27:25;;;;;;;14.03;9.30;;;6.40;99.90;;;;;;5090243;22;20547;-73
2023/04/21 01:30:11;;;;;;;12.73;9.60;;;6.50;99.90;;;;;;5078345;28;20451;-72
2023/04/21 01:32:59;;;;;;;14.37;11.07;;;6.40;99.90;;;;;;5074212;28;20471;-71
2023/04/21 01:35:45;;;;;;;12.80;10.80;;;6.40;99.90;;;;;;5084250;28;20523;-71
2023/04/21 01:38:32;;;;;;;12.47;10.27;;;6.20;99.90;;;;;;5082278;28;20442;-71
2023/04/21 01:41:18;;;;;;;11.60;9.70;;;6.10;99.90;;;;;;5074298;28;20475;-73
2023/04/21 01:44:04;;;;;;;13.13;10.63;;;6.00;99.90;;;;;;5078388;28;20525;-73
2023/04/21 01:46:50;;;;;;;13.73;10.97;;;6.00;99.90;;;;;;5078134;28;20494;-72
2023/04/21 01:49:36;;;;;;;15.13;11.50;;;6.10;99.90;;;;;;5075982;28;21011;-73
2023/04/21 01:52:22;;;;;;;12.90;10.00;;;6.20;99.90;;;;;;5078952;28;20489;-73
2023/04/21 01:55:10;;;;;;;11.80;10.00;;;6.20;99.90;;;;;;5080029;28;20593;-73
2023/04/21 01:57:56;;;;;;;14.47;9.70;;;6.20;99.90;;;;;;5075725;28;20553;-73
2023/04/21 02:00:42;;;;;;;21.87;10.00;;;6.20;99.90;;;;;;5075604;28;20472;-73
2023/04/21 02:03:27;;;;;;;13.50;10.50;;;6.10;99.90;;;;;;5078158;28;20873;-73
2023/04/21 02:06:13;;;;;;;13.43;10.27;;;6.10;99.90;;;;;;5079194;28;20445;-72
2023/04/21 02:08:59;;;;;;;12.93;9.53;;;6.10;99.90;;;;;;5078383;28;20585;-73
2023/04/21 02:11:46;;;;;;;12.93;10.77;;;6.10;99.90;;;;;;5074980;28;20493;-73
2023/04/21 02:14:32;;;;;;;11.97;9.00;;;6.10;99.90;;;;;;5080068;28;20536;-73
2023/04/21 02:17:17;;;;;;;13.13;10.20;;;6.10;99.90;;;;;;5079742;28;20538;-73
2023/04/21 02:20:04;;;;;;;11.40;9.10;;;6.10;99.90;;;;;;5080611;28;20975;-73
2023/04/21 02:22:49;;;;;;;14.93;10.83;;;6.10;99.90;;;;;;5087573;28;20592;-72
2023/04/21 02:25:35;;;;;;;13.20;10.40;;;6.00;99.90;;;;;;5082871;28;20562;-73
2023/04/21 02:28:22;;;;;;;14.73;11.13;;;5.90;99.90;;;;;;5087425;28;20835;-72
2023/04/21 02:31:08;;;;;;;12.07;10.60;;;5.90;99.90;;;;;;5078826;28;20469;-73
2023/04/21 02:33:53;;;;;;;14.50;10.87;;;5.90;99.90;;;;;;5085178;28;20470;-73
2023/04/21 02:36:39;;;;;;;14.23;10.70;;;5.80;99.90;;;;;;5077657;28;20578;-73
2023/04/21 02:39:25;;;;;;;16.60;11.17;;;5.90;99.90;;;;;;5080501;28;20451;-72
2023/04/21 02:42:10;;;;;;;13.43;10.23;;;5.90;99.90;;;;;;5090180;28;20846;-73
2023/04/21 02:44:58;;;;;;;11.90;9.80;;;6.00;99.90;;;;;;5091411;28;20873;-73
2023/04/21 02:47:43;;;;;;;14.57;10.90;;;6.10;99.90;;;;;;5085141;28;20806;-73
2023/04/21 02:50:29;;;;;;;13.83;9.77;;;6.00;99.90;;;;;;5082526;28;20781;-73
2023/04/21 02:53:15;;;;;;;13.03;10.60;;;5.80;99.90;;;;;;5083695;28;20601;-73
2023/04/21 02:56:03;;;;;;;14.20;10.00;;;5.80;99.90;;;;;;5081342;28;20448;-73
2023/04/21 02:58:48;;;;;;;11.50;10.23;;;5.80;99.90;;;;;;5086075;28;20452;-73
2023/04/21 03:01:36;;;;;;;17.53;10.70;;;5.70;99.90;;;;;;5078675;28;20539;-73
2023/04/21 03:04:23;;;;;;;13.70;10.93;;;5.80;99.90;;;;;;5080846;28;21002;-73
2023/04/21 03:07:12;;;;;;;13.00;10.57;;;5.80;99.90;;;;;;5081078;28;20473;-73
2023/04/21 03:09:58;;;;;;;11.73;9.40;;;5.70;99.90;;;;;;5076617;28;20437;-73
2023/04/21 03:12:44;;;;;;;13.87;8.90;;;5.70;99.90;;;;;;5078663;28;20522;-73
2023/04/21 03:15:29;;;;;;;11.23;9.10;;;5.70;99.90;;;;;;5079690;28;20992;-73
2023/04/21 03:18:17;;;;;;;11.60;10.00;;;5.60;99.90;;;;;;5080071;28;20964;-73
2023/04/21 03:21:02;;;;;;;12.00;9.40;;;5.50;99.90;;;;;;5083860;28;20462;-73
2023/04/21 03:23:48;;;;;;;14.47;10.07;;;5.40;99.90;;;;;;5086747;28;20436;-73
2023/04/21 03:26:34;;;;;;;10.93;9.07;;;5.50;99.90;;;;;;5080380;28;20830;-73
2023/04/21 03:29:20;;;;;;;14.88;10.88;;;5.50;99.90;;;;;;5084983;28;20447;-73
2023/04/21 03:32:05;;;;;;;11.20;9.57;;;5.50;99.90;;;;;;5083201;28;20970;-73
2023/04/21 03:34:52;;;;;;;12.03;9.80;;;5.50;99.90;;;;;;5083606;28;20441;-73
2023/04/21 03:37:38;;;;;;;9.73;8.60;;;5.40;99.90;;;;;;5080640;28;20941;-73
2023/04/21 03:40:24;;;;;;;10.07;8.97;;;5.50;99.90;;;;;;5077539;28;20449;-73
2023/04/21 03:43:10;;;;;;;9.87;8.83;;;5.40;99.90;;;;;;5082159;28;20455;-73
2023/04/21 03:45:56;;;;;;;14.90;9.37;;;5.30;99.90;;;;;;5079976;28;20452;-73
2023/04/21 03:48:41;;;;;;;11.67;9.60;;;5.20;99.90;;;;;;5078304;28;20494;-73
2023/04/21 03:51:31;;;;;;;14.40;10.83;;;5.00;99.90;;;;;;5079847;28;20488;-73
2023/04/21 03:54:17;;;;;;;12.13;10.60;;;4.80;99.90;;;;;;5074574;28;20428;-73
2023/04/21 03:57:02;;;;;;;15.33;11.40;;;4.80;99.90;;;;;;5079791;28;20452;-73
2023/04/21 03:59:48;;;;;;;17.17;11.13;;;4.70;99.90;;;;;;5080053;28;20452;-73
2023/04/21 04:02:33;;;;;;;13.60;10.23;;;4.80;99.90;;;;;;5087571;28;20475;-73
2023/04/21 04:05:19;;;;;;;11.38;10.15;;;4.90;99.90;;;;;;5082002;28;20531;-73
2023/04/21 04:08:06;;;;;;;13.93;11.23;;;5.00;99.90;;;;;;5079925;28;20211;-73
2023/04/21 04:10:52;;;;;;;22.10;10.20;;;5.10;99.90;;;;;;5079817;28;20231;-73
2023/04/21 04:13:38;;;;;;;16.00;10.03;;;5.10;99.90;;;;;;5076293;28;21015;-73
2023/04/21 04:16:24;;;;;;;12.57;10.23;;;5.10;99.90;;;;;;5083809;28;20973;-75
2023/04/21 04:19:10;;;;;;;13.40;9.15;;;5.10;99.90;;;;;;5083384;28;20203;-73
2023/04/21 04:21:57;;;;;;;13.32;10.65;;;5.10;99.90;;;;;;5081339;28;20609;-73
2023/04/21 04:24:44;;;;;;;14.33;10.50;;;5.10;99.90;;;;;;5087672;28;20303;-73
2023/04/21 04:27:31;;;;;;;12.05;9.50;;;5.10;99.90;;;;;;5082460;28;20530;-73
2023/04/21 04:30:16;;;;;;;12.25;9.20;;;5.00;99.90;;;;;;5079043;28;20206;-73
2023/04/21 04:33:02;;;;;;;13.10;9.55;;;5.00;99.90;;;;;;5080181;28;20223;-73
2023/04/21 04:35:48;;;;;;;13.60;9.70;;;4.90;99.90;;;;;;5086770;28;20210;-74
2023/04/21 04:38:36;;;;;;;13.52;10.00;;;4.80;99.90;;;;;;5080831;28;20464;-73
2023/04/21 04:41:23;;;;;;;12.00;9.17;;;4.80;99.90;;;;;;5087871;28;20229;-73
2023/04/21 04:44:10;;;;;;;11.87;10.23;;;4.80;99.90;;;;;;5085124;28;20442;-73
2023/04/21 04:46:55;;;;;;;12.53;10.50;;;4.80;99.90;;;;;;5084575;28;20453;-73
2023/04/21 04:49:41;;;;;;;14.25;10.20;;;4.80;99.90;;;;;;5073666;28;20455;-73
2023/04/21 04:52:26;;;;;;;13.70;10.30;;;4.90;99.90;;;;;;5082190;28;20310;-73
2023/04/21 04:55:12;;;;;;;13.50;10.20;;;5.00;99.90;;;;;;5077929;28;20412;-73
2023/04/21 04:58:00;;;;;;;12.17;10.10;;;5.10;99.90;;;;;;5076540;28;20445;-73
2023/04/21 05:00:46;;;;;;;12.83;10.07;;;5.10;99.90;;;;;;5077516;28;20464;-73
2023/04/21 05:03:32;;;;;;;13.85;10.32;;;5.10;99.90;;;;;;5078393;28;20571;-73
2023/04/21 05:06:18;;;;;;;12.73;9.90;;;5.00;99.90;;;;;;5075965;28;21190;-73
2023/04/21 05:09:04;;;;;;;11.93;10.20;;;5.10;99.90;;;;;;5076169;28;20464;-73
2023/04/21 05:11:50;;;;;;;12.23;9.93;;;5.00;99.90;;;;;;5080030;28;20280;-73
2023/04/21 05:14:37;;;;;;;12.88;10.00;;;5.00;99.90;;;;;;5078561;28;20226;-73
2023/04/21 05:17:22;;;;;;;12.03;10.30;;;5.10;99.90;;;;;;5082089;28;20264;-73
2023/04/21 05:20:09;;;;;;;17.00;11.47;;;5.10;99.90;;;;;;5076094;28;20999;-73
2023/04/21 05:22:54;;;;;;;12.98;10.65;;;5.20;99.90;;;;;;5082279;28;20564;-74
2023/04/21 05:25:40;;;;;;;12.10;10.23;;;5.30;99.90;;;;;;5087800;28;20332;-74
2023/04/21 05:28:28;;;;;;;13.68;10.75;;;5.20;99.90;;;;;;5073110;28;20210;-74
2023/04/21 05:31:15;;;;;;;10.95;9.55;;;5.20;99.90;;;;;;5081501;28;20719;-73
2023/04/21 05:34:01;;;;;;;13.43;9.87;;;5.20;99.90;;;;;;5076978;28;20235;-73
2023/04/21 05:36:47;;;;;;;13.80;10.57;;;5.40;99.90;;;;;;5075516;28;20589;-73
2023/04/21 05:39:33;;;;;;;15.00;11.53;;;5.50;99.90;;;;;;5078223;28;20427;-73
2023/04/21 05:42:20;;;;;;;13.20;9.95;;;5.70;99.90;;;;;;5077296;28;20570;-74
2023/04/21 05:45:07;;;;;;;13.07;10.10;;;5.80;99.90;;;;;;5081842;28;20351;-72
2023/04/21 05:47:54;;;;;;;11.00;9.10;;;5.80;99.90;;;;;;5072523;28;20425;-73
2023/04/21 05:50:40;;;;;;;13.40;9.60;;;5.80;99.90;;;;;;5081815;28;20449;-73
2023/04/21 05:53:27;;;;;;;14.07;9.23;;;5.80;99.90;;;;;;5079568;28;20467;-74
2023/04/21 05:56:13;;;;;;;12.10;10.27;;;5.80;99.90;;;;;;5077967;28;22277;-74
2023/04/21 05:58:59;;;;;;;13.97;10.50;;;5.90;99.90;;;;;;5077570;28;20524;-73
2023/04/21 06:01:45;;;;;;;12.20;9.67;;;6.00;99.90;;;;;;5080525;28;20524;-73
2023/04/21 06:04:31;;;;;;;13.57;10.50;;;6.10;99.90;;;;;;5082963;28;20703;-73
2023/04/21 06:07:17;;;;;;;13.60;11.03;;;6.20;99.90;;;;;;5079034;28;20457;-74
2023/04/21 06:10:03;;;;;;;15.90;12.00;;;6.30;99.90;;;;;;5084584;28;20945;-74
2023/04/21 06:12:49;;;;;;;15.60;11.67;;;6.40;99.90;;;;;;5078196;28;20452;-74
2023/04/21 06:15:34;;;;;;;13.30;11.90;;;6.50;99.90;;;;;;5084527;28;20937;-73
2023/04/21 06:18:20;;;;;;;14.87;12.30;;;6.60;99.90;;;;;;5087776;28;20803;-74
2023/04/21 06:21:07;;;;;;;14.00;12.37;;;6.70;99.90;;;;;;5087648;28;20467;-74
2023/04/21 06:23:53;;;;;;;14.30;11.80;;;6.70;99.90;;;;;;5091121;28;20460;-73
2023/04/21 06:26:39;;;;;;;14.73;11.07;;;6.70;99.90;;;;;;5086904;28;20438;-73
2023/04/21 06:29:25;;;;;;;18.23;10.90;;;6.70;99.90;;;;;;5084779;28;20460;-73
2023/04/21 06:32:11;;;;;;;15.93;11.87;;;6.70;99.90;;;;;;5091078;28;21005;-73
2023/04/21 06:34:56;;;;;;;13.40;10.30;;;6.90;99.90;;;;;;5087263;28;20469;-74
2023/04/21 06:37:43;;;;;;;16.60;12.20;;;7.00;99.90;;;;;;5083691;28;20920;-73
2023/04/21 06:40:29;;;;;;;15.00;11.37;;;7.10;99.90;;;;;;5083798;28;20499;-73
2023/04/21 06:43:15;;;;;;;13.47;10.43;;;7.20;99.90;;;;;;5087546;28;20563;-73
2023/04/21 06:46:00;;;;;;;17.73;13.60;;;7.20;99.90;;;;;;5086416;28;20527;-73
2023/04/21 06:48:46;;;;;;;15.20;12.60;;;7.30;99.90;;;;;;5077980;28;20460;-73
2023/04/21 06:51:31;;;;;;;15.90;13.03;;;7.50;99.90;;;;;;5080623;28;20442;-73
2023/04/21 06:54:19;;;;;;;15.40;11.80;;;7.60;99.90;;;;;;5078695;28;21014;-73
2023/04/21 06:57:04;;;;;;;18.57;13.50;;;7.70;99.90;;;;;;5081353;28;20609;-74
2023/04/21 06:59:50;;;;;;;19.37;15.23;;;7.90;99.90;;;;;;5084303;28;20976;-74
2023/04/21 07:02:35;;;;;;;17.10;12.03;;;8.10;99.90;;;;;;5084854;28;20441;-73
2023/04/21 07:05:21;;;;;;;15.83;12.40;;;8.20;99.90;;;;;;5081298;28;20448;-73
2023/04/21 07:08:07;;;;;;;13.27;10.50;;;8.40;99.90;;;;;;5079752;28;20441;-73
2023/04/21 07:10:54;;;;;;;14.90;11.17;;;8.40;99.90;;;;;;5081007;28;20472;-73
2023/04/21 07:13:39;;;;;;;15.40;10.27;;;8.60;99.90;;;;;;5080783;28;20451;-72
2023/04/21 07:16:25;;;;;;;12.00;10.70;;;8.60;99.90;;;;;;5081914;28;20424;-72
2023/04/21 07:19:11;;;;;;;12.03;10.57;;;8.70;99.90;;;;;;5085204;28;20496;-73
2023/04/21 07:21:57;;;;;;;12.67;9.90;;;8.80;99.90;;;;;;5076713;28;20468;-73
2023/04/21 07:24:42;;;;;;;15.20;10.40;;;8.80;99.90;;;;;;5077799;28;20875;-73
2023/04/21 07:27:29;;;;;;;16.13;11.00;;;8.90;99.90;;;;;;5073212;28;20792;-73
2023/04/21 07:30:15;;;;;;;15.50;10.83;;;9.00;99.90;;;;;;5081924;28;20431;-73
2023/04/21 07:33:01;;;;;;;15.20;9.60;;;9.10;99.90;;;;;;5085874;28;20443;-73
2023/04/21 07:35:47;;;;;;;13.90;10.50;;;9.30;99.90;;;;;;5081223;28;20450;-73
2023/04/21 07:38:32;;;;;;;13.00;11.10;;;9.30;99.90;;;;;;5079900;28;20448;-72
2023/04/21 07:41:18;;;;;;;15.67;10.53;;;9.40;99.90;;;;;;5084932;28;20569;-73
2023/04/21 07:44:05;;;;;;;15.13;11.50;;;9.50;99.90;;;;;;5075351;28;20950;-73
2023/04/21 07:46:51;;;;;;;13.83;10.70;;;9.50;99.90;;;;;;5079714;28;20544;-73
2023/04/21 07:49:36;;;;;;;14.93;12.03;;;9.60;99.90;;;;;;5085731;28;20423;-72
2023/04/21 07:52:22;;;;;;;16.33;12.30;;;9.60;99.90;;;;;;5087072;28;20558;-73
2023/04/21 07:55:08;;;;;;;13.53;10.87;;;9.70;99.90;;;;;;5086658;28;20475;-71
2023/04/21 07:57:54;;;;;;;14.13;10.60;;;9.70;99.90;;;;;;5078581;28;20496;-72
2023/04/21 08:00:40;;;;;;;19.43;10.57;;;9.90;99.90;;;;;;5080953;28;20474;-73
2023/04/21 08:03:26;;;;;;;13.43;10.00;;;10.00;99.90;;;;;;5074796;28;20415;-73
2023/04/21 08:06:12;;;;;;;15.20;9.80;;;10.10;99.90;;;;;;5079026;28;20488;-72
2023/04/21 08:08:58;;;;;;;18.67;12.03;;;10.20;99.90;;;;;;5079190;28;20657;-73
2023/04/21 08:11:43;;;;;;;15.30;11.20;;;10.20;99.90;;;;;;5084529;28;20832;-73
2023/04/21 08:14:29;;;;;;;14.57;10.20;;;10.20;99.90;;;;;;5078074;28;20462;-72
2023/04/21 08:17:17;;;;;;;10.00;8.80;;;10.40;99.90;;;;;;5082088;28;20503;-73
2023/04/21 08:20:03;;;;;;;9.33;7.60;;;10.60;99.90;;;;;;5087045;28;20485;-73
2023/04/21 08:22:48;;;;;;;11.27;7.33;;;10.70;99.90;;;;;;5084473;28;20530;-73
2023/04/21 08:25:34;;;;;;;10.40;7.80;;;10.90;99.90;;;;;;5079786;28;20421;-72
2023/04/21 08:28:20;;;;;;;8.90;7.20;;;11.10;99.90;;;;;;5082705;28;20488;-73
2023/04/21 08:31:05;;;;;;;10.87;7.80;;;11.20;99.90;;;;;;5081575;28;20479;-73
2023/04/21 08:33:53;;;;;;;10.67;7.70;;;11.50;99.90;;;;;;5081283;28;20462;-73
2023/04/21 08:36:40;;;;;;;10.07;8.00;;;11.60;99.90;;;;;;5074245;28;20493;-73
2023/04/21 08:39:25;;;;;;;12.93;8.40;;;11.60;99.90;;;;;;5079748;28;20486;-73
2023/04/21 08:42:14;;;;;;;13.47;10.13;;;11.60;99.90;;;;;;5083636;28;20446;-73
2023/04/21 08:44:59;;;;;;;11.80;8.37;;;11.50;99.90;;;;;;5081429;28;20957;-73
2023/04/21 08:47:47;;;;;;;9.73;8.40;;;11.50;99.90;;;;;;5083112;28;20558;-72
2023/04/21 08:50:35;;;;;;;11.60;9.37;;;11.40;99.90;;;;;;5077323;28;20473;-73
2023/04/21 08:53:21;;;;;;;11.80;9.37;;;11.40;99.90;;;;;;5078736;28;20565;-73
2023/04/21 08:56:07;;;;;;;11.73;8.73;;;11.30;99.90;;;;;;5080740;28;20422;-73
2023/04/21 08:58:53;;;;;;;12.83;9.73;;;11.40;99.90;;;;;;5084832;28;20874;-73
2023/04/21 09:02:09;;;;;;;12.63;9.47;;;11.40;99.90;;;;;;5087236;28;20428;-73
2023/04/21 09:04:55;;;;;;;13.50;9.63;;;11.50;99.90;;;;;;5085430;28;20460;-72
2023/04/21 09:07:42;;;;;;;14.63;10.47;;;11.50;99.90;;;;;;5079155;28;20568;-73
2023/04/21 09:10:28;;;;;;;13.90;9.57;;;11.60;99.90;;;;;;5073732;28;20436;-73
2023/04/21 09:13:13;;;;;;;15.27;10.30;;;11.60;99.90;;;;;;5076513;28;20450;-73
2023/04/21 09:16:11;;;;;;;14.77;11.30;;;11.70;99.90;;;;;;5078596;28;20413;-72
2023/04/21 09:19:02;;;;;;;16.87;11.10;;;11.80;99.90;;;;;;5086060;28;20511;-73
2023/04/21 09:21:47;;;;;;;13.50;10.63;;;11.90;99.90;;;;;;5085584;28;20464;-73
2023/04/21 09:24:34;;;;;;;15.20;11.43;;;12.10;99.90;;;;;;5084786;28;20834;-72
2023/04/21 09:27:22;;;;;;;14.90;11.60;;;12.30;99.90;;;;;;5084949;28;20814;-72
2023/04/21 09:30:09;;;;;;;13.77;10.43;;;12.60;99.90;;;;;;5083262;28;20405;-72
2023/04/21 09:32:57;;;;;;;16.53;11.17;;;12.70;99.90;;;;;;5090102;28;20482;-72
2023/04/21 09:35:43;;;;;;;16.00;11.07;;;13.00;99.90;;;;;;5082576;28;20486;-73
2023/04/21 09:38:28;;;;;;;14.90;11.10;;;13.20;99.90;;;;;;5087514;28;20438;-72
2023/04/21 09:41:17;;;;;;;14.77;10.90;;;13.40;99.90;;;;;;5084972;28;20913;-72
2023/04/21 09:44:03;;;;;;;14.93;10.77;;;13.60;99.90;;;;;;5078817;28;20441;-73
2023/04/21 09:46:50;;;;;;;14.73;9.87;;;13.80;99.90;;;;;;5080971;28;20455;-72
2023/04/21 09:49:42;;;;;;;16.30;10.30;;;13.80;99.90;;;;;;5087226;28;20489;-73
2023/04/21 09:52:28;;;;;;;14.90;10.90;;;14.00;99.90;;;;;;5087311;28;20523;-72
2023/04/21 09:55:15;;;;;;;12.00;9.00;;;14.20;99.90;;;;;;5079751;28;20454;-72
2023/04/21 09:58:05;;;;;;;15.77;10.33;;;14.30;99.90;;;;;;5086720;28;20423;-73
2023/04/21 10:00:53;;;;;;;12.90;10.13;;;14.30;99.70;;;;;;5081971;28;20516;-72
2023/04/21 10:03:39;;;;;;;15.20;10.70;;;14.40;99.90;;;;;;5089671;28;20410;-73
2023/04/21 10:06:25;;;;;;;13.17;10.13;;;14.50;97.70;;;;;;5087431;28;20519;-72
2023/04/21 10:09:13;;;;;;;13.23;9.83;;;14.60;96.60;;;;;;5089439;28;20890;-72
2023/04/21 10:12:01;;;;;;;12.30;9.50;;;14.60;96.20;;;;;;5080874;28;20474;-72
2023/04/21 10:14:51;;;;;;;14.30;9.40;;;14.80;97.00;;;;;;5079908;28;20448;-73
2023/04/21 10:17:36;;;;;;;19.37;9.27;;;14.90;94.50;;;;;;5085125;28;20454;-73
2023/04/21 10:20:23;;;;;;;14.53;10.03;;;15.00;95.00;;;;;;5081973;28;20456;-72
2023/04/21 10:23:09;;;;;;;13.70;10.13;;;15.10;95.40;;;;;;5077523;28;20425;-74
2023/04/21 10:25:59;;;;;;;10.77;8.97;;;15.20;93.70;;;;;;5072518;28;20505;-74
2023/04/21 10:28:53;;;;;;;15.00;10.50;;;15.40;94.90;;;;;;5081349;28;20544;-74
2023/04/21 10:31:51;;;;;;;12.13;9.80;;;15.50;93.40;;;;;;5072409;28;20470;-74
2023/04/21 10:34:38;;;;;;;16.17;10.60;;;15.70;94.50;;;;;;5077333;28;20517;-74
2023/04/21 10:37:24;;;;;;;12.07;9.40;;;15.70;93.60;;;;;;5080255;28;20995;-74
2023/04/21 10:40:35;;;;;;;14.10;11.30;;;15.80;92.60;;;;;;5082943;28;20426;-74
2023/04/21 10:43:42;;;;;;;14.90;11.43;;;15.80;92.70;;;;;;5079230;28;20465;-74
2023/04/21 10:46:35;;;;;;;14.47;10.20;;;16.00;93.70;;;;;;5073782;28;20549;-73
2023/04/21 10:49:24;;;;;;;13.03;9.93;;;16.10;92.10;;;;;;5072953;28;20540;-73
2023/04/21 10:52:11;;;;;;;15.90;10.43;;;16.20;92.40;;;;;;5078606;28;20460;-73
2023/04/21 10:55:11;;;;;;;18.07;12.50;;;16.30;91.90;;;;;;5082441;28;20591;-73
2023/04/21 10:58:01;;;;;;;15.70;11.57;;;16.20;91.00;;;;;;5083907;28;20418;-73
2023/04/21 11:00:47;;;;;;;14.13;10.27;;;16.30;91.80;;;;;;5086349;28;20439;-72
2023/04/21 11:03:35;;;;;;;15.83;12.03;;;16.30;91.70;;;;;;5076863;28;20440;-72
2023/04/21 11:06:21;;;;;;;15.87;10.80;;;16.40;92.40;;;;;;5081669;28;20432;-73
2023/04/21 11:09:08;;;;;;;16.53;10.27;;;16.60;91.30;;;;;;5083000;28;20452;-73
2023/04/21 11:11:58;;;;;;;12.83;9.97;;;16.80;90.70;;;;;;5085312;28;20579;-72
2023/04/21 11:14:47;;;;;;;11.23;9.10;;;16.90;85.80;;;;;;5085624;28;20466;-72
2023/04/21 11:17:33;;;;;;;15.73;10.77;;;17.10;86.60;;;;;;5088569;28;20437;-72
2023/04/21 11:20:18;;;;;;;14.57;11.50;;;17.10;83.70;;;;;;5076759;28;20425;-72
2023/04/21 11:23:06;;;;;;;11.63;8.90;;;17.10;83.60;;;;;;5082463;28;20976;-72
2023/04/21 11:25:51;;;;;;;13.77;11.03;;;17.10;80.60;;;;;;5081159;28;21453;-72
2023/04/21 11:28:37;;;;;;;14.80;11.07;;;17.10;80.40;;;;;;5080090;28;20423;-73
2023/04/21 11:31:28;;;;;;;12.17;9.97;;;17.20;84.30;;;;;;5083830;28;20461;-72
2023/04/21 11:34:15;;;;;;;14.53;10.80;;;17.30;84.80;;;;;;5077005;28;20474;-72
2023/04/21 11:37:00;;;;;;;14.23;11.23;;;17.40;81.10;;;;;;5083113;28;20412;-72
2023/04/21 11:39:47;;;;;;;15.37;11.43;;;17.40;78.40;;;;;;5085215;28;20802;-72
2023/04/21 11:42:33;;;;;;;16.40;10.67;;;17.40;78.30;;;;;;5086332;28;20765;-72
2023/04/21 11:45:19;;;;;;;15.47;10.90;;;17.40;77.90;;;;;;5080462;28;20447;-72
2023/04/21 11:48:16;;;;;;;17.90;11.50;;;17.50;77.30;;;;;;5088743;28;20459;-72
2023/04/21 11:51:01;;;;;;;15.20;12.33;;;17.40;76.40;;;;;;5085380;28;20458;-73
2023/04/21 11:53:48;;;;;;;15.77;12.37;;;17.40;74.00;;;;;;5073974;28;20521;-73
2023/04/21 11:56:37;;;;;;;17.17;13.50;;;17.20;74.50;;;;;;5077173;28;20484;-73
2023/04/21 11:59:25;;;;;;;17.30;13.27;;;17.20;77.00;;;;;;5074246;28;20442;-73
2023/04/21 12:02:14;;;;;;;15.00;12.10;;;17.20;76.50;;;;;;5079730;28;20464;-73
2023/04/21 12:05:04;;;;;;;15.27;11.27;;;17.40;78.30;;;;;;5079884;28;20442;-73
2023/04/21 12:07:51;;;;;;;12.23;10.57;;;17.60;77.80;;;;;;5084665;28;20777;-73
2023/04/21 12:10:37;;;;;;;14.40;11.27;;;17.80;74.40;;;;;;5088133;28;20837;-72
2023/04/21 12:13:24;;;;;;;15.93;11.53;;;17.90;71.70;;;;;;5086379;28;20432;-73
2023/04/21 12:16:10;;;;;;;15.07;10.90;;;17.90;68.10;;;;;;5083659;28;20473;-73
2023/04/21 12:18:56;;;;;;;12.03;9.10;;;17.90;66.70;;;;;;5089625;28;20403;-73
2023/04/21 12:21:42;;;;;;;20.60;11.50;;;18.00;66.60;;;;;;5087883;28;20922;-73
2023/04/21 12:24:28;;;;;;;11.20;9.23;;;18.00;66.50;;;;;;5078178;28;20948;-72
2023/04/21 12:27:14;;;;;;;14.10;11.90;;;18.20;68.40;;;;;;5089225;28;20439;-72
2023/04/21 12:30:02;;;;;;;16.27;11.93;;;18.30;63.50;;;;;;5084544;28;20441;-73
2023/04/21 12:32:47;;;;;;;14.90;12.40;;;18.50;67.20;;;;;;5085434;28;20448;-73
2023/04/21 12:35:34;;;;;;;17.17;12.23;;;18.50;66.90;;;;;;5076909;28;20445;-73
2023/04/21 12:38:20;;;;;;;15.03;12.30;;;18.40;63.60;;;;;;5082674;28;20420;-73
2023/04/21 12:41:06;;;;;;;17.23;12.70;;;18.20;63.50;;;;;;5077755;28;20994;-73
2023/04/21 12:43:52;;;;;;;15.10;12.13;;;18.20;66.30;;;;;;5083444;28;20442;-73
2023/04/21 12:46:39;;;;;;;15.70;12.17;;;18.40;68.00;;;;;;5085801;28;20410;-73
2023/04/21 12:49:25;;;;;;;19.03;12.17;;;18.50;66.10;;;;;;5087893;28;20446;-73
2023/04/21 12:52:11;;;;;;;15.00;12.33;;;18.70;66.50;;;;;;5087967;28;20460;-73
2023/04/21 12:54:56;;;;;;;14.10;11.80;;;19.00;64.10;;;;;;5080851;28;20473;-73
2023/04/21 12:57:42;;;;;;;15.80;11.80;;;19.20;59.70;;;;;;5085221;28;20457;-73
2023/04/21 13:00:28;;;;;;;15.33;11.30;;;19.40;61.50;;;;;;5084746;28;20946;-73
2023/04/21 13:03:15;;;;;;;13.57;11.57;;;19.50;59.50;;;;;;5080403;28;20566;-73
2023/04/21 13:06:01;;;;;;;14.67;11.97;;;19.60;55.30;;;;;;5082277;28;20888;-73
2023/04/21 13:08:46;;;;;;;13.17;10.67;;;20.10;56.70;;;;;;5081962;28;21056;-73
2023/04/21 13:11:32;;;;;;;14.10;12.23;;;20.40;54.70;;;;;;5079644;28;20467;-73
2023/04/21 13:14:18;;;;;;;13.00;11.50;;;20.30;52.40;;;;;;5077195;28;20422;-73
2023/04/21 13:17:04;;;;;;;14.63;11.53;;;20.20;50.20;;;;;;5080432;28;20771;-73
2023/04/21 13:19:51;;;;;;;12.87;10.73;;;20.00;51.90;;;;;;5085665;28;20445;-73
2023/04/21 13:22:37;;;;;;;13.30;10.93;;;20.10;53.70;;;;;;5082400;28;20955;-73
2023/04/21 13:25:22;;;;;;;16.20;11.23;;;20.00;52.70;;;;;;5082075;28;20436;-73
2023/04/21 13:28:08;;;;;;;12.33;10.60;;;20.10;51.00;;;;;;5084278;28;20781;-73
2023/04/21 13:30:54;;;;;;;12.37;10.80;;;20.20;50.90;;;;;;5088790;28;20453;-73
2023/04/21 13:33:40;;;;;;;12.50;10.20;;;20.40;50.90;;;;;;5080651;28;20814;-73
2023/04/21 13:36:27;;;;;;;12.97;11.17;;;20.60;49.50;;;;;;5082241;28;20464;-73
2023/04/21 13:39:13;;;;;;;15.40;10.30;;;20.60;43.10;;;;;;5085642;28;20450;-73
2023/04/21 13:42:00;;;;;;;10.10;8.90;;;20.50;44.70;;;;;;5086200;28;20437;-73
2023/04/21 13:44:45;;;;;;;11.10;9.80;;;20.40;45.10;;;;;;5078902;28;21194;-73
2023/04/21 13:47:32;;;;;;;10.30;9.10;;;20.50;46.60;;;;;;5085373;28;20595;-73
2023/04/21 13:50:18;;;;;;;10.13;9.13;;;20.70;44.40;;;;;;5079215;28;20989;-73
2023/04/21 13:53:06;;;;;;;12.77;8.47;;;20.70;43.20;;;;;;5075525;28;20478;-72
2023/04/21 13:55:52;;;;;;;9.10;8.20;;;20.90;43.60;;;;;;5079338;28;20617;-73
2023/04/21 13:58:37;;;;;;;10.00;8.27;;;20.90;44.00;;;;;;5078166;28;20447;-73
2023/04/21 14:01:23;;;;;;;11.90;9.20;;;20.90;40.60;;;;;;5086144;28;20467;-73
2023/04/21 14:04:08;;;;;;;11.90;8.57;;;20.90;40.50;;;;;;5080776;28;21027;-73
2023/04/21 14:06:55;;;;;;;8.93;7.77;;;20.90;43.30;;;;;;5088225;28;20434;-73
2023/04/21 14:09:42;;;;;;;8.93;8.03;;;21.00;43.30;;;;;;5085610;28;20446;-73
2023/04/21 14:12:28;;;;;;;9.10;7.33;;;20.90;40.60;;;;;;5084404;28;20637;-73
2023/04/21 14:15:14;;;;;;;9.53;8.03;;;20.80;39.60;;;;;;5085939;28;20490;-73